createdAt,value
2023-10-07T00:00:33.954Z,158.05
2023-10-07T00:03:01.930Z,174.95
2023-10-07T00:05:41.643Z,187.55
2023-10-07T00:08:09.682Z,243.98
2023-10-07T00:10:38.984Z,295.33
2023-10-07T00:13:10.804Z,255.40
2023-10-07T00:15:43.749Z,131.10
2023-10-07T00:18:14.580Z,147.82
2023-10-07T00:21:08.483Z,183.80
2023-10-07T00:23:36.754Z,179.80
2023-10-07T00:26:09.010Z,237.88
2023-10-07T00:28:39.684Z,277.80
2023-10-07T00:31:23.554Z,284.92
2023-10-07T00:33:58.761Z,266.25
2023-10-07T00:36:34.970Z,308.25
2023-10-07T00:39:03.729Z,350.67
2023-10-07T00:41:38.230Z,365.90
2023-10-07T00:44:38.116Z,394.38
2023-10-07T00:47:06.153Z,340.38
2023-10-07T00:49:49.278Z,442.98
2023-10-07T00:52:42.317Z,377.73
2023-10-07T00:55:11.540Z,425.83
2023-10-07T00:57:38.993Z,481.50
2023-10-07T01:00:25.798Z,500.17
2023-10-07T01:03:01.930Z,495.45
2023-10-07T01:05:34.416Z,463.33
2023-10-07T01:08:01.805Z,517.88
2023-10-07T01:10:32.790Z,542.55
2023-10-07T01:13:04.561Z,493.90
2023-10-07T01:15:35.990Z,540.20
2023-10-07T01:18:06.981Z,531.78
2023-10-07T01:20:57.734Z,547.33
2023-10-07T01:23:34.184Z,470.23
2023-10-07T01:26:03.223Z,496.23
2023-10-07T01:28:33.847Z,482.50
2023-10-07T01:31:13.772Z,517.35
2023-10-07T01:33:42.174Z,446.58
2023-10-07T01:36:09.478Z,531.08
2023-10-07T01:38:42.142Z,548.17
2023-10-07T01:41:15.685Z,539.50
2023-10-07T01:43:43.272Z,534.65
2023-10-07T01:46:12.153Z,549.42
2023-10-07T01:48:39.629Z,492.70
2023-10-07T01:51:06.904Z,553.80
2023-10-07T01:53:34.113Z,570.70
2023-10-07T01:56:06.219Z,602.45
2023-10-07T01:58:33.755Z,622.88
2023-10-07T02:01:01.036Z,615.63
2023-10-07T02:03:28.291Z,533.95
2023-10-07T02:05:55.590Z,612.38
2023-10-07T02:08:25.738Z,630.83
2023-10-07T02:10:53.907Z,584.95
2023-10-07T02:13:21.462Z,672.90
2023-10-07T02:15:49.295Z,604.40
2023-10-07T02:18:19.715Z,513.95
2023-10-07T02:20:51.122Z,532.20
2023-10-07T02:23:24.121Z,498.50
2023-10-07T02:25:51.613Z,538.05
2023-10-07T02:28:22.969Z,582.35
2023-10-07T02:31:01.416Z,622.53
2023-10-07T02:33:29.488Z,593.70
2023-10-07T02:35:57.693Z,550.55
2023-10-07T02:38:29.665Z,498.40
2023-10-07T02:41:08.055Z,521.03
2023-10-07T02:43:35.939Z,545.65
2023-10-07T02:46:03.793Z,538.97
2023-10-07T02:48:36.095Z,560.05
2023-10-07T02:51:08.951Z,588.65
2023-10-07T02:53:37.155Z,612.65
2023-10-07T02:56:18.377Z,586.50
2023-10-07T02:59:01.721Z,430.48
2023-10-07T03:01:30.269Z,523.05
2023-10-07T03:04:01.782Z,494.70
2023-10-07T03:06:29.608Z,284.52
2023-10-07T03:09:11.278Z,283.75
2023-10-07T03:11:41.663Z,148.88
2023-10-07T03:14:14.832Z,128.13
2023-10-07T03:16:48.727Z,92.82
2023-10-07T03:19:22.836Z,121.93
2023-10-07T03:21:56.972Z,129.30
2023-10-07T03:24:42.474Z,161.48
2023-10-07T03:27:14.589Z,199.10
2023-10-07T03:29:59.122Z,234.57
2023-10-07T03:32:26.637Z,269.13
2023-10-07T03:34:53.898Z,238.38
2023-10-07T03:37:21.211Z,148.77
2023-10-07T03:40:08.686Z,127.68
2023-10-07T03:42:39.294Z,109.00
2023-10-07T03:45:06.771Z,114.13
2023-10-07T03:47:34.287Z,97.72
2023-10-07T03:50:05.690Z,148.80
2023-10-07T03:52:36.543Z,156.68
2023-10-07T03:55:03.874Z,160.20
2023-10-07T03:57:31.127Z,97.68
2023-10-07T03:59:59.364Z,101.63
2023-10-07T04:02:29.843Z,135.10
2023-10-07T04:05:02.067Z,173.32
2023-10-07T04:07:32.584Z,85.80
2023-10-07T04:10:14.072Z,135.00
2023-10-07T04:12:41.833Z,55.58
2023-10-07T04:15:13.829Z,43.40
2023-10-07T04:17:44.603Z,50.83
2023-10-07T04:20:29.722Z,57.38
2023-10-07T04:23:01.786Z,57.42
2023-10-07T04:25:30.916Z,96.03
2023-10-07T04:27:59.352Z,144.05
2023-10-07T04:30:29.573Z,133.05
2023-10-07T04:33:02.641Z,155.93
2023-10-07T04:35:34.104Z,164.10
2023-10-07T04:38:11.068Z,228.00
2023-10-07T04:41:02.137Z,190.73
2023-10-07T04:43:48.461Z,90.00
2023-10-07T04:46:25.715Z,70.38
2023-10-07T04:48:57.025Z,66.55
2023-10-07T04:51:33.214Z,53.60
2023-10-07T04:54:00.782Z,52.65
2023-10-07T04:56:28.222Z,97.65
2023-10-07T04:58:55.829Z,135.02
2023-10-07T05:01:32.993Z,87.15
2023-10-07T05:04:05.362Z,82.82
2023-10-07T05:06:36.315Z,57.55
2023-10-07T05:09:19.639Z,48.78
2023-10-07T05:11:48.466Z,44.85
2023-10-07T05:14:19.454Z,92.47
2023-10-07T05:16:50.087Z,48.42
2023-10-07T05:19:24.485Z,42.47
2023-10-07T05:22:00.718Z,86.70
2023-10-07T05:24:31.439Z,100.15
2023-10-07T05:27:02.569Z,135.57
2023-10-07T05:29:30.338Z,104.00
2023-10-07T05:31:58.704Z,147.00
2023-10-07T05:34:35.012Z,128.50
2023-10-07T05:37:12.575Z,148.50
2023-10-07T05:39:42.589Z,170.30
2023-10-07T05:42:12.952Z,158.98
2023-10-07T05:44:40.918Z,144.63
2023-10-07T05:47:10.026Z,226.73
2023-10-07T05:49:39.279Z,192.27
2023-10-07T05:52:06.887Z,217.05
2023-10-07T05:54:34.816Z,228.48
2023-10-07T05:57:07.964Z,291.23
2023-10-07T05:59:35.927Z,325.10
2023-10-07T06:02:08.165Z,318.15
2023-10-07T06:04:35.872Z,265.13
2023-10-07T06:07:03.108Z,330.73
2023-10-07T06:09:30.353Z,193.52
2023-10-07T06:12:00.886Z,260.42
2023-10-07T06:14:28.316Z,226.25
2023-10-07T06:16:57.639Z,338.63
2023-10-07T06:19:25.524Z,398.10
2023-10-07T06:21:52.819Z,443.48
2023-10-07T06:24:22.775Z,453.23
2023-10-07T06:26:50.679Z,463.95
2023-10-07T06:29:20.862Z,425.00
2023-10-07T06:32:11.823Z,394.77
2023-10-07T06:34:42.670Z,260.90
2023-10-07T06:37:10.165Z,297.73
2023-10-07T06:39:38.367Z,352.67
2023-10-07T06:42:07.405Z,377.08
2023-10-07T06:44:34.695Z,385.83
2023-10-07T06:47:03.993Z,391.67
2023-10-07T06:49:40.390Z,382.63
2023-10-07T06:52:07.759Z,393.38
2023-10-07T06:54:35.048Z,450.90
2023-10-07T06:57:05.493Z,395.58
2023-10-07T06:59:32.800Z,335.33
2023-10-07T07:02:07.665Z,358.27
2023-10-07T07:04:37.176Z,381.45
2023-10-07T07:07:17.657Z,451.45
2023-10-07T07:09:51.263Z,332.88
2023-10-07T07:12:22.627Z,416.42
2023-10-07T07:14:53.351Z,408.80
2023-10-07T07:17:31.000Z,427.55
2023-10-07T07:20:11.560Z,489.30
2023-10-07T07:22:40.130Z,517.20
2023-10-07T07:25:13.686Z,555.50
2023-10-07T07:27:47.000Z,523.50
2023-10-07T07:30:21.319Z,531.72
2023-10-07T07:32:57.249Z,540.28
2023-10-07T07:35:39.912Z,480.10
2023-10-07T07:38:27.938Z,448.35
2023-10-07T07:41:11.153Z,360.67
2023-10-07T07:43:39.070Z,537.83
2023-10-07T07:46:30.089Z,425.08
2023-10-07T07:49:06.108Z,477.42
2023-10-07T07:51:38.549Z,521.38
2023-10-07T07:54:09.225Z,365.55
2023-10-07T07:56:36.941Z,560.20
2023-10-07T07:59:22.781Z,522.88
2023-10-07T08:01:55.285Z,482.52
2023-10-07T08:04:55.163Z,332.23
2023-10-07T08:07:26.582Z,542.15
2023-10-07T08:09:54.427Z,529.85
2023-10-07T08:12:39.877Z,607.03
2023-10-07T08:15:22.737Z,589.83
2023-10-07T08:17:53.068Z,582.42
2023-10-07T08:20:29.486Z,640.05
2023-10-07T08:22:57.060Z,614.28
2023-10-07T08:25:38.848Z,686.22
2023-10-07T08:28:26.765Z,626.50
2023-10-07T08:30:54.557Z,643.90
2023-10-07T08:33:24.364Z,720.58
2023-10-07T08:35:56.267Z,716.45
2023-10-07T08:38:39.302Z,747.65
2023-10-07T08:41:08.882Z,763.25
2023-10-07T08:43:45.287Z,677.33
2023-10-07T08:46:21.563Z,729.55
2023-10-07T08:48:57.721Z,747.67
2023-10-07T08:51:25.623Z,769.50
2023-10-07T08:53:58.535Z,793.35
2023-10-07T08:56:26.836Z,751.45
2023-10-07T08:58:54.099Z,781.63
2023-10-07T09:01:21.354Z,774.63
2023-10-07T09:03:49.777Z,810.28
2023-10-07T09:06:17.826Z,826.28
2023-10-07T09:08:45.153Z,824.25
2023-10-07T09:11:20.086Z,707.50
2023-10-07T09:13:48.775Z,804.30
2023-10-07T09:16:16.157Z,820.97
2023-10-07T09:18:43.743Z,768.72
2023-10-07T09:21:13.164Z,762.55
2023-10-07T09:23:49.055Z,812.92
2023-10-07T09:26:23.078Z,861.67
2023-10-07T09:28:53.122Z,796.53
2023-10-07T09:31:24.401Z,467.08
2023-10-07T09:33:51.712Z,845.58
2023-10-07T09:36:34.770Z,715.63
2023-10-07T09:39:14.378Z,789.50
2023-10-07T09:41:45.399Z,859.35
2023-10-07T09:44:27.365Z,868.15
2023-10-07T09:46:54.932Z,638.17
2023-10-07T09:49:22.305Z,870.13
2023-10-07T09:51:52.370Z,774.17
2023-10-07T09:54:38.743Z,815.95
2023-10-07T09:57:20.547Z,857.47
2023-10-07T09:59:57.605Z,568.83
2023-10-07T10:02:49.793Z,833.80
2023-10-07T10:05:32.883Z,907.63
2023-10-07T10:08:21.057Z,889.42
2023-10-07T10:10:59.364Z,862.22
2023-10-07T10:13:31.115Z,879.42
2023-10-07T10:16:02.407Z,865.25
2023-10-07T10:18:37.309Z,843.10
2023-10-07T10:21:05.802Z,494.27
2023-10-07T10:23:38.971Z,899.55
2023-10-07T10:26:16.089Z,683.20
2023-10-07T10:28:44.917Z,901.00
2023-10-07T10:31:25.967Z,921.55
2023-10-07T10:33:53.682Z,902.88
2023-10-07T10:36:23.886Z,907.90
2023-10-07T10:38:51.335Z,843.88
2023-10-07T10:41:31.302Z,888.72
2023-10-07T10:44:06.069Z,895.28
2023-10-07T10:46:45.291Z,907.97
2023-10-07T10:49:17.872Z,919.53
2023-10-07T10:51:49.293Z,916.03
2023-10-07T10:54:18.441Z,867.25
2023-10-07T10:56:50.195Z,908.47
2023-10-07T10:59:19.298Z,854.15
2023-10-07T11:01:51.196Z,857.08
2023-10-07T11:04:22.151Z,852.00
2023-10-07T11:06:52.747Z,892.53
2023-10-07T11:09:26.928Z,871.35
2023-10-07T11:11:57.616Z,901.88
2023-10-07T11:14:25.206Z,889.15
2023-10-07T11:16:53.095Z,880.28
2023-10-07T11:19:20.690Z,838.05
2023-10-07T11:21:50.335Z,901.65
2023-10-07T11:24:25.949Z,903.70
2023-10-07T11:26:53.862Z,921.75
2023-10-07T11:29:22.183Z,880.25
2023-10-07T11:31:59.893Z,901.70
2023-10-07T11:34:38.982Z,864.70
2023-10-07T11:37:15.031Z,885.03
2023-10-07T11:39:48.415Z,884.45
2023-10-07T11:42:16.477Z,867.85
2023-10-07T11:44:43.972Z,831.75
2023-10-07T11:47:16.459Z,887.00
2023-10-07T11:49:44.322Z,894.75
2023-10-07T11:52:11.736Z,844.85
2023-10-07T11:54:39.035Z,856.88
2023-10-07T11:57:06.524Z,858.03
2023-10-07T11:59:37.316Z,892.88
2023-10-07T12:02:11.404Z,821.00
2023-10-07T12:04:42.901Z,826.13
2023-10-07T12:07:14.176Z,743.05
2023-10-07T12:09:41.466Z,884.30
2023-10-07T12:12:11.305Z,764.05
2023-10-07T12:14:38.647Z,805.10
2023-10-07T12:17:06.320Z,834.72
2023-10-07T12:19:34.071Z,752.47
2023-10-07T12:22:01.450Z,727.10
2023-10-07T12:24:28.728Z,773.05
2023-10-07T12:26:57.557Z,863.58
2023-10-07T12:29:27.943Z,846.47
2023-10-07T12:31:56.753Z,860.28
2023-10-07T12:34:25.282Z,861.05
2023-10-07T12:36:55.691Z,884.30
2023-10-07T12:39:23.035Z,821.65
2023-10-07T12:41:50.595Z,745.38
2023-10-07T12:44:18.219Z,813.88
2023-10-07T12:46:45.550Z,817.75
2023-10-07T12:49:15.487Z,839.63
2023-10-07T12:51:43.379Z,822.83
2023-10-07T12:54:11.050Z,796.78
2023-10-07T12:56:38.921Z,790.88
2023-10-07T12:59:19.186Z,828.50
2023-10-07T13:01:47.418Z,750.28
2023-10-07T13:04:14.821Z,777.35
2023-10-07T13:06:45.158Z,813.65
2023-10-07T13:09:17.773Z,822.03
2023-10-07T13:11:46.654Z,815.78
2023-10-07T13:14:14.262Z,811.33
2023-10-07T13:16:46.847Z,809.53
2023-10-07T13:19:18.209Z,815.80
2023-10-07T13:21:45.476Z,842.38
2023-10-07T13:24:13.228Z,880.80
2023-10-07T13:26:40.649Z,821.88
2023-10-07T13:29:12.661Z,823.85
2023-10-07T13:31:40.335Z,849.70
2023-10-07T13:34:08.744Z,807.33
2023-10-07T13:36:40.095Z,796.88
2023-10-07T13:39:16.902Z,799.05
2023-10-07T13:41:48.081Z,840.13
2023-10-07T13:44:16.963Z,742.45
2023-10-07T13:46:44.585Z,830.33
2023-10-07T13:49:12.740Z,859.42
2023-10-07T13:51:44.890Z,828.00
2023-10-07T13:54:27.708Z,837.58
2023-10-07T13:57:03.660Z,821.40
2023-10-07T13:59:31.205Z,862.95
2023-10-07T14:02:00.303Z,848.58
2023-10-07T14:04:27.680Z,879.63
2023-10-07T14:07:02.167Z,809.75
2023-10-07T14:09:31.105Z,861.80
2023-10-07T14:11:58.629Z,845.50
2023-10-07T14:14:29.052Z,857.95
2023-10-07T14:17:05.018Z,848.40
2023-10-07T14:19:34.653Z,760.95
2023-10-07T14:22:01.992Z,846.47
2023-10-07T14:24:30.835Z,866.05
2023-10-07T14:26:58.474Z,848.20
2023-10-07T14:29:27.880Z,867.22
2023-10-07T14:31:56.076Z,858.50
2023-10-07T14:34:23.520Z,842.72
2023-10-07T14:36:50.757Z,806.65
2023-10-07T14:39:22.964Z,878.67
2023-10-07T14:41:55.261Z,880.53
2023-10-07T14:47:07.949Z,889.63
2023-10-07T14:49:37.492Z,913.30
2023-10-07T14:52:04.934Z,849.25
2023-10-07T14:54:32.190Z,871.53
2023-10-07T14:56:59.504Z,883.05
2023-10-07T14:59:26.818Z,873.13
2023-10-07T15:01:54.284Z,881.40
2023-10-07T15:04:22.357Z,875.42
2023-10-07T15:06:49.684Z,787.95
2023-10-07T15:09:22.614Z,882.60
2023-10-07T15:15:15.343Z,856.50
2023-10-07T15:17:42.795Z,852.35
2023-10-07T15:20:10.760Z,774.63
2023-10-07T15:22:38.541Z,855.75
2023-10-07T15:25:07.997Z,819.97
2023-10-07T15:27:35.380Z,831.65
2023-10-07T15:30:03.178Z,826.55
2023-10-07T15:32:30.564Z,839.53
2023-10-07T15:35:00.864Z,841.08
2023-10-07T15:37:28.301Z,795.25
2023-10-07T15:39:55.520Z,679.38
2023-10-07T15:42:22.792Z,823.53
2023-10-07T15:44:50.074Z,797.53
2023-10-07T15:47:19.023Z,799.85
2023-10-07T15:49:48.855Z,866.42
2023-10-07T15:52:16.201Z,858.08
2023-10-07T15:54:43.481Z,852.72
2023-10-07T15:57:10.693Z,852.90
2023-10-07T15:59:38.587Z,834.78
2023-10-07T16:02:06.640Z,863.28
2023-10-07T16:04:35.014Z,857.47
2023-10-07T16:07:05.834Z,859.60
2023-10-07T16:09:36.575Z,826.28
2023-10-07T16:12:04.300Z,836.50
2023-10-07T16:14:32.733Z,849.83
2023-10-07T16:17:00.414Z,801.38
2023-10-07T16:19:29.778Z,836.70
2023-10-07T16:21:59.383Z,713.97
2023-10-07T16:24:27.690Z,820.25
2023-10-07T16:26:55.176Z,850.95
2023-10-07T16:29:22.514Z,824.80
2023-10-07T16:31:51.694Z,813.17
2023-10-07T16:34:19.078Z,826.63
2023-10-07T16:36:47.148Z,810.25
2023-10-07T16:39:16.888Z,804.42
2023-10-07T16:41:45.428Z,805.22
2023-10-07T16:44:12.802Z,775.28
2023-10-07T16:46:44.132Z,744.03
2023-10-07T16:49:13.566Z,873.80
2023-10-07T16:51:47.868Z,793.28
2023-10-07T16:54:15.150Z,833.25
2023-10-07T16:56:42.434Z,712.05
2023-10-07T16:59:09.776Z,783.92
2023-10-07T17:01:38.041Z,769.22
2023-10-07T17:04:05.573Z,772.63
2023-10-07T17:06:33.522Z,733.65
2023-10-07T17:09:00.832Z,697.00
2023-10-07T17:11:28.640Z,771.50
2023-10-07T17:13:55.961Z,755.40
2023-10-07T17:16:23.788Z,786.00
2023-10-07T17:18:51.548Z,706.75
2023-10-07T17:21:20.384Z,744.85
2023-10-07T17:23:47.723Z,681.38
2023-10-07T17:26:14.970Z,774.60
2023-10-07T17:28:42.225Z,686.67
2023-10-07T17:31:11.109Z,717.22
2023-10-07T17:33:38.502Z,744.42
2023-10-07T17:36:05.849Z,758.03
2023-10-07T17:38:33.172Z,707.72
2023-10-07T17:41:01.562Z,726.97
2023-10-07T17:43:30.122Z,626.80
2023-10-07T17:45:57.439Z,681.17
2023-10-07T17:48:24.763Z,577.70
2023-10-07T17:50:53.180Z,604.03
2023-10-07T17:53:23.151Z,480.05
2023-10-07T17:55:51.124Z,429.52
2023-10-07T17:58:21.156Z,399.42
2023-10-07T18:00:49.207Z,289.67
2023-10-07T18:03:17.104Z,254.50
2023-10-07T18:05:44.515Z,217.13
2023-10-07T18:08:11.858Z,165.52
2023-10-07T18:10:39.095Z,176.68
2023-10-07T18:13:09.142Z,169.40
2023-10-07T18:15:36.632Z,193.82
2023-10-07T18:18:05.297Z,186.10
2023-10-07T18:20:32.860Z,169.25
2023-10-07T18:23:01.633Z,185.18
2023-10-07T18:25:29.538Z,191.95
2023-10-07T18:27:56.829Z,173.07
2023-10-07T18:30:24.127Z,145.27
2023-10-07T18:32:51.454Z,122.75
2023-10-07T18:35:18.880Z,113.53
2023-10-07T18:37:46.151Z,109.32
2023-10-07T18:40:13.517Z,92.18
2023-10-07T18:42:42.206Z,90.05
2023-10-07T18:45:11.864Z,94.13
2023-10-07T18:47:39.700Z,85.90
2023-10-07T18:50:08.794Z,81.78
2023-10-07T18:52:36.357Z,83.68
2023-10-07T18:55:03.834Z,70.25
2023-10-07T18:57:32.038Z,76.95
2023-10-07T18:59:59.623Z,77.07
2023-10-07T19:02:26.922Z,84.68
2023-10-07T19:04:54.237Z,82.25
2023-10-07T19:07:21.497Z,96.25
2023-10-07T19:09:48.780Z,118.57
2023-10-07T19:12:17.669Z,99.43
2023-10-07T19:14:45.207Z,78.53
2023-10-07T19:17:12.615Z,85.00
2023-10-07T19:19:39.885Z,95.65
2023-10-07T19:22:07.474Z,91.82
2023-10-07T19:24:34.780Z,100.53
2023-10-07T19:27:02.913Z,96.38
2023-10-07T19:29:30.484Z,101.75
2023-10-07T19:31:58.016Z,111.88
2023-10-07T19:34:25.293Z,113.97
2023-10-07T19:36:52.577Z,116.40
2023-10-07T19:39:35.731Z,118.95
2023-10-07T19:42:07.093Z,106.90
2023-10-07T19:44:35.432Z,120.40
2023-10-07T19:47:03.068Z,130.73
2023-10-07T19:49:30.388Z,130.43
2023-10-07T19:51:57.668Z,136.93
2023-10-07T19:54:24.889Z,129.27
2023-10-07T19:56:52.205Z,126.22
2023-10-07T19:59:19.520Z,134.75
2023-10-07T20:01:46.955Z,137.02
2023-10-07T20:04:14.414Z,134.30
2023-10-07T20:06:42.584Z,132.23
2023-10-07T20:09:11.299Z,144.48
2023-10-07T20:11:38.960Z,141.95
2023-10-07T20:14:06.725Z,144.32
2023-10-07T20:16:34.874Z,149.20
2023-10-07T20:19:03.297Z,143.88
2023-10-07T20:21:30.542Z,150.63
2023-10-07T20:23:57.754Z,143.55
2023-10-07T20:26:28.263Z,148.60
2023-10-07T20:28:55.544Z,152.27
2023-10-07T20:31:22.819Z,156.00
2023-10-07T20:33:50.181Z,151.80
2023-10-07T20:36:17.503Z,140.38
2023-10-07T20:38:45.607Z,147.63
2023-10-07T20:41:13.704Z,144.35
2023-10-07T20:43:41.271Z,148.95
2023-10-07T20:46:08.653Z,147.40
2023-10-07T20:48:36.879Z,146.35
2023-10-07T20:51:11.382Z,157.90
2023-10-07T20:53:39.854Z,143.43
2023-10-07T20:56:07.766Z,150.48
2023-10-07T20:58:35.089Z,160.50
2023-10-07T21:01:02.732Z,149.07
2023-10-07T21:03:30.327Z,150.95
2023-10-07T21:05:59.686Z,158.60
2023-10-07T21:08:27.274Z,146.10
2023-10-07T21:10:54.826Z,144.18
2023-10-07T21:13:22.086Z,148.63
2023-10-07T21:15:49.474Z,147.10
2023-10-07T21:18:16.813Z,153.57
2023-10-07T21:20:44.729Z,150.77
2023-10-07T21:23:12.788Z,162.95
2023-10-07T21:25:44.250Z,152.88
2023-10-07T21:28:11.723Z,152.30
2023-10-07T21:30:39.537Z,147.02
2023-10-07T21:33:16.249Z,157.48
2023-10-07T21:35:43.767Z,162.10
2023-10-07T21:38:11.572Z,152.35
2023-10-07T21:40:43.280Z,149.10
2023-10-07T21:43:11.202Z,143.10
2023-10-07T21:45:38.686Z,146.30
2023-10-07T21:48:06.773Z,155.77
2023-10-07T21:50:35.641Z,157.38
2023-10-07T21:53:04.540Z,161.93
2023-10-07T21:55:32.474Z,152.32
2023-10-07T21:58:00.234Z,140.38
2023-10-07T22:00:27.475Z,145.68
2023-10-07T22:03:01.205Z,149.95
2023-10-07T22:05:29.574Z,133.88
2023-10-07T22:07:57.724Z,143.73
2023-10-07T22:10:27.371Z,141.25
2023-10-07T22:12:54.841Z,140.93
2023-10-07T22:15:22.364Z,149.07
2023-10-07T22:17:53.036Z,153.60
2023-10-07T22:20:23.701Z,156.02
2023-10-07T22:22:52.619Z,145.60
2023-10-07T22:25:20.080Z,148.30
2023-10-07T22:27:47.915Z,149.50
2023-10-07T22:30:18.830Z,150.18
2023-10-07T22:32:47.044Z,156.15
2023-10-07T22:35:23.785Z,136.93
2023-10-07T22:37:59.138Z,136.40
2023-10-07T22:40:40.452Z,132.50
2023-10-07T22:43:21.843Z,130.60
2023-10-07T22:45:50.181Z,149.80
2023-10-07T22:48:21.671Z,159.25
2023-10-07T22:50:56.333Z,165.77
2023-10-07T22:53:36.541Z,162.60
2023-10-07T22:56:15.597Z,163.55
2023-10-07T22:58:44.323Z,152.32
2023-10-07T23:01:41.021Z,152.00
2023-10-07T23:04:31.276Z,126.70
2023-10-07T23:07:01.825Z,89.97
2023-10-07T23:09:37.445Z,111.53
2023-10-07T23:12:16.403Z,103.57
2023-10-07T23:14:46.112Z,90.53
2023-10-07T23:17:13.650Z,85.82
2023-10-07T23:19:41.333Z,80.88
2023-10-07T23:22:15.306Z,73.63
2023-10-07T23:24:45.580Z,70.25
2023-10-07T23:27:13.404Z,72.53
2023-10-07T23:29:50.485Z,71.60
2023-10-07T23:32:37.972Z,76.18
2023-10-07T23:35:21.361Z,76.38
2023-10-07T23:38:00.189Z,76.60
2023-10-07T23:40:33.581Z,76.90
2023-10-07T23:43:04.878Z,77.45
2023-10-07T23:45:36.500Z,87.00
2023-10-07T23:48:09.369Z,94.97
2023-10-07T23:50:43.285Z,108.82
2023-10-07T23:53:15.303Z,112.95
2023-10-07T23:55:44.780Z,127.50
2023-10-07T23:58:19.018Z,139.57
